sensor_id;sensor_type;location;lat;lon;timestamp;temperature;humidity
7002;DHT22;3541;53.230;10.518;2023-03-23T00:01:46;10.60;99.90
7002;DHT22;3541;53.230;10.518;2023-03-23T00:04:15;10.60;99.90
7002;DHT22;3541;53.230;10.518;2023-03-23T00:06:41;10.60;99.90
7002;DHT22;3541;53.230;10.518;2023-03-23T00:09:11;10.60;99.90
7002;DHT22;3541;53.230;10.518;2023-03-23T00:11:38;10.50;99.90
7002;DHT22;3541;53.230;10.518;2023-03-23T00:14:06;10.50;99.90
7002;DHT22;3541;53.230;10.518;2023-03-23T00:16:38;10.50;99.90
7002;DHT22;3541;53.230;10.518;2023-03-23T00:19:08;10.40;99.90
7002;DHT22;3541;53.230;10.518;2023-03-23T00:21:36;10.40;99.90
7002;DHT22;3541;53.230;10.518;2023-03-23T00:24:06;10.30;99.90
7002;DHT22;3541;53.230;10.518;2023-03-23T00:26:34;10.30;99.90
7002;DHT22;3541;53.230;10.518;2023-03-23T00:29:02;10.30;99.90
7002;DHT22;3541;53.230;10.518;2023-03-23T00:31:31;10.30;99.90
7002;DHT22;3541;53.230;10.518;2023-03-23T00:33:58;10.20;99.90
7002;DHT22;3541;53.230;10.518;2023-03-23T00:36:26;10.20;99.90
7002;DHT22;3541;53.230;10.518;2023-03-23T00:38:53;10.20;99.90
7002;DHT22;3541;53.230;10.518;2023-03-23T00:41:23;10.20;99.90
7002;DHT22;3541;53.230;10.518;2023-03-23T00:43:52;10.10;99.90
7002;DHT22;3541;53.230;10.518;2023-03-23T00:46:19;10.10;99.90
7002;DHT22;3541;53.230;10.518;2023-03-23T00:48:47;10.10;99.90
7002;DHT22;3541;53.230;10.518;2023-03-23T00:51:13;10.10;99.90
7002;DHT22;3541;53.230;10.518;2023-03-23T00:53:40;10.10;99.90
7002;DHT22;3541;53.230;10.518;2023-03-23T00:56:08;10.10;99.90
7002;DHT22;3541;53.230;10.518;2023-03-23T00:58:34;10.10;99.90
7002;DHT22;3541;53.230;10.518;2023-03-23T01:01:02;10.10;99.90
7002;DHT22;3541;53.230;10.518;2023-03-23T01:03:28;10.00;99.90
7002;DHT22;3541;53.230;10.518;2023-03-23T01:05:56;10.00;99.90
7002;DHT22;3541;53.230;10.518;2023-03-23T01:08:23;10.00;99.90
7002;DHT22;3541;53.230;10.518;2023-03-23T01:10:50;10.10;99.90
7002;DHT22;3541;53.230;10.518;2023-03-23T01:13:19;10.00;99.90
7002;DHT22;3541;53.230;10.518;2023-03-23T01:15:48;10.00;99.90
7002;DHT22;3541;53.230;10.518;2023-03-23T01:18:14;10.00;99.90
7002;DHT22;3541;53.230;10.518;2023-03-23T01:20:41;10.00;99.90
7002;DHT22;3541;53.230;10.518;2023-03-23T01:23:09;10.00;99.90
7002;DHT22;3541;53.230;10.518;2023-03-23T01:25:36;10.00;99.90
7002;DHT22;3541;53.230;10.518;2023-03-23T01:28:03;10.00;99.90
7002;DHT22;3541;53.230;10.518;2023-03-23T01:30:29;9.90;99.90
7002;DHT22;3541;53.230;10.518;2023-03-23T01:32:56;10.00;99.90
7002;DHT22;3541;53.230;10.518;2023-03-23T01:35:22;10.00;99.90
7002;DHT22;3541;53.230;10.518;2023-03-23T01:37:49;9.90;99.90
7002;DHT22;3541;53.230;10.518;2023-03-23T01:40:17;9.90;99.90
7002;DHT22;3541;53.230;10.518;2023-03-23T01:42:44;9.90;99.90
7002;DHT22;3541;53.230;10.518;2023-03-23T01:45:27;9.90;99.90
7002;DHT22;3541;53.230;10.518;2023-03-23T01:47:59;9.90;99.90
7002;DHT22;3541;53.230;10.518;2023-03-23T01:50:28;9.90;99.90
7002;DHT22;3541;53.230;10.518;2023-03-23T01:52:57;9.90;99.90
7002;DHT22;3541;53.230;10.518;2023-03-23T01:55:27;9.90;99.90
7002;DHT22;3541;53.230;10.518;2023-03-23T01:57:55;9.90;99.90
7002;DHT22;3541;53.230;10.518;2023-03-23T02:00:23;9.90;99.90
7002;DHT22;3541;53.230;10.518;2023-03-23T02:02:51;9.90;99.90
7002;DHT22;3541;53.230;10.518;2023-03-23T02:05:23;9.90;99.90
7002;DHT22;3541;53.230;10.518;2023-03-23T02:07:51;9.90;99.90
7002;DHT22;3541;53.230;10.518;2023-03-23T02:10:18;9.90;99.90
7002;DHT22;3541;53.230;10.518;2023-03-23T02:12:46;9.90;99.90
7002;DHT22;3541;53.230;10.518;2023-03-23T02:15:13;9.90;99.90
7002;DHT22;3541;53.230;10.518;2023-03-23T02:17:45;9.90;99.90
7002;DHT22;3541;53.230;10.518;2023-03-23T02:20:23;9.90;99.90
7002;DHT22;3541;53.230;10.518;2023-03-23T02:23:18;9.90;99.90
7002;DHT22;3541;53.230;10.518;2023-03-23T02:25:59;9.90;99.90
7002;DHT22;3541;53.230;10.518;2023-03-23T02:29:02;9.90;99.90
7002;DHT22;3541;53.230;10.518;2023-03-23T02:31:45;9.90;99.90
7002;DHT22;3541;53.230;10.518;2023-03-23T02:34:17;9.80;99.90
7002;DHT22;3541;53.230;10.518;2023-03-23T02:36:48;9.80;99.90
7002;DHT22;3541;53.230;10.518;2023-03-23T02:39:20;9.80;99.90
7002;DHT22;3541;53.230;10.518;2023-03-23T02:41:50;9.80;99.90
7002;DHT22;3541;53.230;10.518;2023-03-23T02:44:19;9.80;99.90
7002;DHT22;3541;53.230;10.518;2023-03-23T02:46:47;9.80;99.90
7002;DHT22;3541;53.230;10.518;2023-03-23T02:49:16;9.80;99.90
7002;DHT22;3541;53.230;10.518;2023-03-23T02:51:45;9.80;99.90
7002;DHT22;3541;53.230;10.518;2023-03-23T02:54:13;9.90;99.90
7002;DHT22;3541;53.230;10.518;2023-03-23T02:56:42;9.80;99.90
7002;DHT22;3541;53.230;10.518;2023-03-23T02:59:09;9.90;99.90
7002;DHT22;3541;53.230;10.518;2023-03-23T03:01:58;9.90;99.90
7002;DHT22;3541;53.230;10.518;2023-03-23T03:04:28;9.80;99.90
7002;DHT22;3541;53.230;10.518;2023-03-23T03:07:07;9.80;99.90
7002;DHT22;3541;53.230;10.518;2023-03-23T03:09:44;9.80;99.90
7002;DHT22;3541;53.230;10.518;2023-03-23T03:12:16;9.80;99.90
7002;DHT22;3541;53.230;10.518;2023-03-23T03:14:51;9.90;99.90
7002;DHT22;3541;53.230;10.518;2023-03-23T03:17:24;9.90;99.90
7002;DHT22;3541;53.230;10.518;2023-03-23T03:19:55;9.90;99.90
7002;DHT22;3541;53.230;10.518;2023-03-23T03:22:23;9.90;99.90
7002;DHT22;3541;53.230;10.518;2023-03-23T03:24:55;9.90;99.90
7002;DHT22;3541;53.230;10.518;2023-03-23T03:27:23;9.90;99.90
7002;DHT22;3541;53.230;10.518;2023-03-23T03:29:54;9.90;99.90
7002;DHT22;3541;53.230;10.518;2023-03-23T03:32:25;9.90;99.90
7002;DHT22;3541;53.230;10.518;2023-03-23T03:34:59;9.90;99.90
7002;DHT22;3541;53.230;10.518;2023-03-23T03:37:25;9.90;99.90
7002;DHT22;3541;53.230;10.518;2023-03-23T03:39:53;9.90;99.90
7002;DHT22;3541;53.230;10.518;2023-03-23T03:42:19;9.90;99.90
7002;DHT22;3541;53.230;10.518;2023-03-23T03:44:46;9.90;99.90
7002;DHT22;3541;53.230;10.518;2023-03-23T03:47:12;9.90;99.90
7002;DHT22;3541;53.230;10.518;2023-03-23T03:49:39;9.90;99.90
7002;DHT22;3541;53.230;10.518;2023-03-23T03:52:07;9.90;99.90
7002;DHT22;3541;53.230;10.518;2023-03-23T03:54:33;9.90;99.90
7002;DHT22;3541;53.230;10.518;2023-03-23T03:57:00;9.90;99.90
7002;DHT22;3541;53.230;10.518;2023-03-23T03:59:27;9.90;99.90
7002;DHT22;3541;53.230;10.518;2023-03-23T04:01:53;9.90;99.90
7002;DHT22;3541;53.230;10.518;2023-03-23T04:04:20;10.00;99.90
7002;DHT22;3541;53.230;10.518;2023-03-23T04:06:47;10.00;99.90
7002;DHT22;3541;53.230;10.518;2023-03-23T04:09:16;10.00;99.90
7002;DHT22;3541;53.230;10.518;2023-03-23T04:11:44;10.00;99.90
7002;DHT22;3541;53.230;10.518;2023-03-23T04:14:11;10.00;99.90
7002;DHT22;3541;53.230;10.518;2023-03-23T04:16:37;10.00;99.90
7002;DHT22;3541;53.230;10.518;2023-03-23T04:19:05;10.00;99.90
7002;DHT22;3541;53.230;10.518;2023-03-23T04:21:32;10.00;99.90
7002;DHT22;3541;53.230;10.518;2023-03-23T04:23:59;10.00;99.90
7002;DHT22;3541;53.230;10.518;2023-03-23T04:26:27;10.00;99.90
7002;DHT22;3541;53.230;10.518;2023-03-23T04:28:55;10.00;99.90
7002;DHT22;3541;53.230;10.518;2023-03-23T04:31:21;10.00;99.90
7002;DHT22;3541;53.230;10.518;2023-03-23T04:33:49;10.00;99.90
7002;DHT22;3541;53.230;10.518;2023-03-23T04:36:18;10.00;99.90
7002;DHT22;3541;53.230;10.518;2023-03-23T04:38:44;10.10;99.90
7002;DHT22;3541;53.230;10.518;2023-03-23T04:41:11;10.00;99.90
7002;DHT22;3541;53.230;10.518;2023-03-23T04:43:39;10.00;99.90
7002;DHT22;3541;53.230;10.518;2023-03-23T04:46:08;10.10;99.90
7002;DHT22;3541;53.230;10.518;2023-03-23T04:48:35;10.10;99.90
7002;DHT22;3541;53.230;10.518;2023-03-23T04:51:04;10.10;99.90
7002;DHT22;3541;53.230;10.518;2023-03-23T04:53:31;10.10;99.90
7002;DHT22;3541;53.230;10.518;2023-03-23T04:55:58;10.10;99.90
7002;DHT22;3541;53.230;10.518;2023-03-23T04:58:26;10.10;99.90
7002;DHT22;3541;53.230;10.518;2023-03-23T05:00:56;10.10;99.90
7002;DHT22;3541;53.230;10.518;2023-03-23T05:03:22;10.10;99.90
7002;DHT22;3541;53.230;10.518;2023-03-23T05:05:50;10.10;99.90
7002;DHT22;3541;53.230;10.518;2023-03-23T05:08:18;10.10;99.90
7002;DHT22;3541;53.230;10.518;2023-03-23T05:10:50;10.10;99.90
7002;DHT22;3541;53.230;10.518;2023-03-23T05:13:18;10.10;99.90
7002;DHT22;3541;53.230;10.518;2023-03-23T05:15:44;10.10;99.90
7002;DHT22;3541;53.230;10.518;2023-03-23T05:18:12;10.10;99.90
7002;DHT22;3541;53.230;10.518;2023-03-23T05:20:39;10.10;99.90
7002;DHT22;3541;53.230;10.518;2023-03-23T05:23:07;10.10;99.90
7002;DHT22;3541;53.230;10.518;2023-03-23T05:25:33;10.10;99.90
7002;DHT22;3541;53.230;10.518;2023-03-23T05:28:02;10.10;99.90
7002;DHT22;3541;53.230;10.518;2023-03-23T05:30:28;10.10;99.90
7002;DHT22;3541;53.230;10.518;2023-03-23T05:32:55;10.10;99.90
7002;DHT22;3541;53.230;10.518;2023-03-23T05:35:23;10.10;99.90
7002;DHT22;3541;53.230;10.518;2023-03-23T05:37:50;10.10;99.90
7002;DHT22;3541;53.230;10.518;2023-03-23T05:40:19;10.00;99.90
7002;DHT22;3541;53.230;10.518;2023-03-23T05:42:47;10.00;99.90
7002;DHT22;3541;53.230;10.518;2023-03-23T05:45:14;10.00;99.90
7002;DHT22;3541;53.230;10.518;2023-03-23T05:47:42;10.00;99.90
7002;DHT22;3541;53.230;10.518;2023-03-23T05:50:09;10.00;99.90
7002;DHT22;3541;53.230;10.518;2023-03-23T05:52:37;10.00;99.90
7002;DHT22;3541;53.230;10.518;2023-03-23T05:55:05;10.00;99.90
7002;DHT22;3541;53.230;10.518;2023-03-23T05:57:33;10.00;99.90
7002;DHT22;3541;53.230;10.518;2023-03-23T06:00:00;10.00;99.90
7002;DHT22;3541;53.230;10.518;2023-03-23T06:02:38;10.00;99.90
7002;DHT22;3541;53.230;10.518;2023-03-23T06:05:06;10.00;99.90
7002;DHT22;3541;53.230;10.518;2023-03-23T06:07:33;10.00;99.90
7002;DHT22;3541;53.230;10.518;2023-03-23T06:10:02;10.10;99.90
7002;DHT22;3541;53.230;10.518;2023-03-23T06:12:28;10.10;99.90
7002;DHT22;3541;53.230;10.518;2023-03-23T06:14:55;10.10;99.90
7002;DHT22;3541;53.230;10.518;2023-03-23T06:17:22;10.10;99.90
7002;DHT22;3541;53.230;10.518;2023-03-23T06:19:49;10.10;99.90
7002;DHT22;3541;53.230;10.518;2023-03-23T06:22:16;10.10;99.90
7002;DHT22;3541;53.230;10.518;2023-03-23T06:24:42;10.10;99.90
7002;DHT22;3541;53.230;10.518;2023-03-23T06:27:11;10.10;99.90
7002;DHT22;3541;53.230;10.518;2023-03-23T06:29:39;10.10;99.90
7002;DHT22;3541;53.230;10.518;2023-03-23T06:32:05;10.10;99.90
7002;DHT22;3541;53.230;10.518;2023-03-23T06:34:32;10.20;99.90
7002;DHT22;3541;53.230;10.518;2023-03-23T06:36:59;10.20;99.90
7002;DHT22;3541;53.230;10.518;2023-03-23T06:39:27;10.20;99.90
7002;DHT22;3541;53.230;10.518;2023-03-23T06:41:54;10.20;99.90
7002;DHT22;3541;53.230;10.518;2023-03-23T06:44:23;10.20;99.90
7002;DHT22;3541;53.230;10.518;2023-03-23T06:46:51;10.20;99.90
7002;DHT22;3541;53.230;10.518;2023-03-23T06:49:18;10.20;99.90
7002;DHT22;3541;53.230;10.518;2023-03-23T06:51:45;10.20;99.90
7002;DHT22;3541;53.230;10.518;2023-03-23T06:54:11;10.20;99.90
7002;DHT22;3541;53.230;10.518;2023-03-23T06:56:38;10.20;99.90
7002;DHT22;3541;53.230;10.518;2023-03-23T06:59:05;10.30;99.90
7002;DHT22;3541;53.230;10.518;2023-03-23T07:01:33;10.20;99.90
7002;DHT22;3541;53.230;10.518;2023-03-23T07:04:00;10.30;99.90
7002;DHT22;3541;53.230;10.518;2023-03-23T07:06:27;10.30;99.90
7002;DHT22;3541;53.230;10.518;2023-03-23T07:08:53;10.30;99.90
7002;DHT22;3541;53.230;10.518;2023-03-23T07:11:20;10.30;99.90
7002;DHT22;3541;53.230;10.518;2023-03-23T07:13:46;10.30;99.90
7002;DHT22;3541;53.230;10.518;2023-03-23T07:16:15;10.40;99.90
7002;DHT22;3541;53.230;10.518;2023-03-23T07:18:43;10.40;99.90
7002;DHT22;3541;53.230;10.518;2023-03-23T07:21:10;10.50;99.90
7002;DHT22;3541;53.230;10.518;2023-03-23T07:23:37;10.50;99.90
7002;DHT22;3541;53.230;10.518;2023-03-23T07:26:03;10.50;99.90
7002;DHT22;3541;53.230;10.518;2023-03-23T07:28:30;10.60;99.90
7002;DHT22;3541;53.230;10.518;2023-03-23T07:30:57;10.60;99.90
7002;DHT22;3541;53.230;10.518;2023-03-23T07:33:24;10.60;99.90
7002;DHT22;3541;53.230;10.518;2023-03-23T07:35:53;10.70;99.90
7002;DHT22;3541;53.230;10.518;2023-03-23T07:38:20;10.70;99.90
7002;DHT22;3541;53.230;10.518;2023-03-23T07:40:46;10.70;99.90
7002;DHT22;3541;53.230;10.518;2023-03-23T07:43:14;10.80;99.90
7002;DHT22;3541;53.230;10.518;2023-03-23T07:45:41;10.90;99.90
7002;DHT22;3541;53.230;10.518;2023-03-23T07:48:07;10.90;99.90
7002;DHT22;3541;53.230;10.518;2023-03-23T07:50:34;10.90;99.90
7002;DHT22;3541;53.230;10.518;2023-03-23T07:53:04;10.90;99.90
7002;DHT22;3541;53.230;10.518;2023-03-23T07:55:31;10.90;99.90
7002;DHT22;3541;53.230;10.518;2023-03-23T07:57:58;10.80;99.90
7002;DHT22;3541;53.230;10.518;2023-03-23T08:00:25;10.80;99.90
7002;DHT22;3541;53.230;10.518;2023-03-23T08:02:53;10.80;99.90
7002;DHT22;3541;53.230;10.518;2023-03-23T08:05:22;10.80;99.90
7002;DHT22;3541;53.230;10.518;2023-03-23T08:07:51;10.70;99.90
7002;DHT22;3541;53.230;10.518;2023-03-23T08:10:21;10.70;99.90
7002;DHT22;3541;53.230;10.518;2023-03-23T08:12:51;10.70;99.90
7002;DHT22;3541;53.230;10.518;2023-03-23T08:15:19;10.70;99.90
7002;DHT22;3541;53.230;10.518;2023-03-23T08:17:47;10.70;99.90
7002;DHT22;3541;53.230;10.518;2023-03-23T08:20:14;10.70;99.90
7002;DHT22;3541;53.230;10.518;2023-03-23T08:22:43;10.70;99.90
7002;DHT22;3541;53.230;10.518;2023-03-23T08:25:11;10.80;99.90
7002;DHT22;3541;53.230;10.518;2023-03-23T08:27:40;10.90;99.90
7002;DHT22;3541;53.230;10.518;2023-03-23T08:30:10;11.00;99.90
7002;DHT22;3541;53.230;10.518;2023-03-23T08:32:37;11.10;99.90
7002;DHT22;3541;53.230;10.518;2023-03-23T08:35:05;11.10;99.90
7002;DHT22;3541;53.230;10.518;2023-03-23T08:37:33;11.20;99.90
7002;DHT22;3541;53.230;10.518;2023-03-23T08:40:00;11.30;99.90
7002;DHT22;3541;53.230;10.518;2023-03-23T08:42:32;11.40;99.90
7002;DHT22;3541;53.230;10.518;2023-03-23T08:45:00;11.40;99.90
7002;DHT22;3541;53.230;10.518;2023-03-23T08:47:27;11.50;99.90
7002;DHT22;3541;53.230;10.518;2023-03-23T08:49:53;11.50;99.90
7002;DHT22;3541;53.230;10.518;2023-03-23T08:52:20;11.50;99.90
7002;DHT22;3541;53.230;10.518;2023-03-23T08:54:47;11.60;99.90
7002;DHT22;3541;53.230;10.518;2023-03-23T08:57:14;11.60;99.90
7002;DHT22;3541;53.230;10.518;2023-03-23T08:59:41;11.60;99.90
7002;DHT22;3541;53.230;10.518;2023-03-23T09:02:10;11.60;99.90
7002;DHT22;3541;53.230;10.518;2023-03-23T09:04:37;11.60;99.90
7002;DHT22;3541;53.230;10.518;2023-03-23T09:07:04;11.60;99.90
7002;DHT22;3541;53.230;10.518;2023-03-23T09:09:31;11.60;99.90
7002;DHT22;3541;53.230;10.518;2023-03-23T09:11:59;11.60;99.90
7002;DHT22;3541;53.230;10.518;2023-03-23T09:14:26;11.60;99.90
7002;DHT22;3541;53.230;10.518;2023-03-23T09:16:53;11.60;99.90
7002;DHT22;3541;53.230;10.518;2023-03-23T09:19:20;11.60;99.90
7002;DHT22;3541;53.230;10.518;2023-03-23T09:21:47;11.60;99.90
7002;DHT22;3541;53.230;10.518;2023-03-23T09:24:14;11.60;99.90
7002;DHT22;3541;53.230;10.518;2023-03-23T09:26:41;11.50;99.90
7002;DHT22;3541;53.230;10.518;2023-03-23T09:29:07;11.40;99.90
7002;DHT22;3541;53.230;10.518;2023-03-23T09:31:34;11.40;99.90
7002;DHT22;3541;53.230;10.518;2023-03-23T09:34:02;11.40;99.90
7002;DHT22;3541;53.230;10.518;2023-03-23T09:36:30;11.30;99.90
7002;DHT22;3541;53.230;10.518;2023-03-23T09:38:57;11.30;99.90
7002;DHT22;3541;53.230;10.518;2023-03-23T09:44:37;11.10;99.90
7002;DHT22;3541;53.230;10.518;2023-03-23T09:47:11;11.00;99.90
7002;DHT22;3541;53.230;10.518;2023-03-23T09:49:44;11.00;99.90
7002;DHT22;3541;53.230;10.518;2023-03-23T09:52:15;10.90;99.90
7002;DHT22;3541;53.230;10.518;2023-03-23T09:54:44;10.80;99.90
7002;DHT22;3541;53.230;10.518;2023-03-23T09:57:15;10.80;99.90
7002;DHT22;3541;53.230;10.518;2023-03-23T09:59:47;10.80;99.90
7002;DHT22;3541;53.230;10.518;2023-03-23T10:02:18;10.80;99.90
7002;DHT22;3541;53.230;10.518;2023-03-23T10:04:47;10.80;99.90
7002;DHT22;3541;53.230;10.518;2023-03-23T10:07:18;10.80;99.90
7002;DHT22;3541;53.230;10.518;2023-03-23T10:09:46;10.80;99.90
7002;DHT22;3541;53.230;10.518;2023-03-23T10:12:21;10.80;99.90
7002;DHT22;3541;53.230;10.518;2023-03-23T10:15:04;10.90;99.90
7002;DHT22;3541;53.230;10.518;2023-03-23T10:17:39;10.90;99.90
7002;DHT22;3541;53.230;10.518;2023-03-23T10:20:21;10.90;99.90
7002;DHT22;3541;53.230;10.518;2023-03-23T10:22:59;10.80;99.90
7002;DHT22;3541;53.230;10.518;2023-03-23T10:25:30;10.80;99.90
7002;DHT22;3541;53.230;10.518;2023-03-23T10:28:06;10.80;99.90
7002;DHT22;3541;53.230;10.518;2023-03-23T10:30:39;10.70;99.90
7002;DHT22;3541;53.230;10.518;2023-03-23T10:33:11;10.70;99.90
7002;DHT22;3541;53.230;10.518;2023-03-23T10:35:43;10.60;99.90
7002;DHT22;3541;53.230;10.518;2023-03-23T10:38:14;10.60;99.90
7002;DHT22;3541;53.230;10.518;2023-03-23T10:40:48;10.60;99.90
7002;DHT22;3541;53.230;10.518;2023-03-23T10:43:16;10.60;99.90
7002;DHT22;3541;53.230;10.518;2023-03-23T10:45:44;10.70;99.90
7002;DHT22;3541;53.230;10.518;2023-03-23T10:48:16;10.60;99.90
7002;DHT22;3541;53.230;10.518;2023-03-23T10:50:48;10.60;99.90
7002;DHT22;3541;53.230;10.518;2023-03-23T10:53:19;10.60;99.90
7002;DHT22;3541;53.230;10.518;2023-03-23T10:55:47;10.60;99.90
7002;DHT22;3541;53.230;10.518;2023-03-23T10:58:24;10.50;99.90
7002;DHT22;3541;53.230;10.518;2023-03-23T11:00:50;10.60;99.90
7002;DHT22;3541;53.230;10.518;2023-03-23T11:03:25;10.50;99.90
7002;DHT22;3541;53.230;10.518;2023-03-23T11:05:56;10.50;99.90
7002;DHT22;3541;53.230;10.518;2023-03-23T11:08:27;10.50;99.90
7002;DHT22;3541;53.230;10.518;2023-03-23T11:10:58;10.40;99.90
7002;DHT22;3541;53.230;10.518;2023-03-23T11:13:30;10.40;99.90
7002;DHT22;3541;53.230;10.518;2023-03-23T11:15:57;10.40;99.90
7002;DHT22;3541;53.230;10.518;2023-03-23T11:18:25;10.40;99.90
7002;DHT22;3541;53.230;10.518;2023-03-23T11:20:55;10.40;99.90
7002;DHT22;3541;53.230;10.518;2023-03-23T11:23:27;10.40;99.90
7002;DHT22;3541;53.230;10.518;2023-03-23T11:25:58;10.40;99.90
7002;DHT22;3541;53.230;10.518;2023-03-23T11:28:31;10.40;99.90
7002;DHT22;3541;53.230;10.518;2023-03-23T11:31:00;10.40;99.90
7002;DHT22;3541;53.230;10.518;2023-03-23T11:33:36;10.40;99.90
7002;DHT22;3541;53.230;10.518;2023-03-23T11:36:06;10.40;99.90
7002;DHT22;3541;53.230;10.518;2023-03-23T11:38:35;10.40;99.90
7002;DHT22;3541;53.230;10.518;2023-03-23T11:41:09;10.50;99.90
7002;DHT22;3541;53.230;10.518;2023-03-23T11:43:39;10.50;99.90
7002;DHT22;3541;53.230;10.518;2023-03-23T11:46:13;10.40;99.90
7002;DHT22;3541;53.230;10.518;2023-03-23T11:48:47;10.40;99.90
7002;DHT22;3541;53.230;10.518;2023-03-23T11:51:19;10.40;99.90
7002;DHT22;3541;53.230;10.518;2023-03-23T11:53:54;10.50;99.90
7002;DHT22;3541;53.230;10.518;2023-03-23T11:56:25;10.50;99.90
7002;DHT22;3541;53.230;10.518;2023-03-23T11:58:54;10.50;99.90
7002;DHT22;3541;53.230;10.518;2023-03-23T12:01:31;10.50;99.90
7002;DHT22;3541;53.230;10.518;2023-03-23T12:04:09;10.50;99.90
7002;DHT22;3541;53.230;10.518;2023-03-23T12:06:46;10.50;99.90
7002;DHT22;3541;53.230;10.518;2023-03-23T12:09:24;10.50;99.90
7002;DHT22;3541;53.230;10.518;2023-03-23T12:12:06;10.50;99.90
7002;DHT22;3541;53.230;10.518;2023-03-23T12:14:44;10.50;99.90
7002;DHT22;3541;53.230;10.518;2023-03-23T12:17:23;10.50;99.90
7002;DHT22;3541;53.230;10.518;2023-03-23T12:20:04;10.60;99.90
7002;DHT22;3541;53.230;10.518;2023-03-23T12:22:43;10.60;99.90
7002;DHT22;3541;53.230;10.518;2023-03-23T12:28:07;10.80;99.90
7002;DHT22;3541;53.230;10.518;2023-03-23T12:30:41;10.80;99.90
7002;DHT22;3541;53.230;10.518;2023-03-23T12:33:17;10.80;99.90
7002;DHT22;3541;53.230;10.518;2023-03-23T12:35:52;11.10;99.90
7002;DHT22;3541;53.230;10.518;2023-03-23T12:38:34;11.30;99.90
7002;DHT22;3541;53.230;10.518;2023-03-23T12:41:14;11.30;99.90
7002;DHT22;3541;53.230;10.518;2023-03-23T12:43:49;11.30;99.90
7002;DHT22;3541;53.230;10.518;2023-03-23T12:46:26;11.40;99.90
7002;DHT22;3541;53.230;10.518;2023-03-23T12:48:59;11.40;99.90
7002;DHT22;3541;53.230;10.518;2023-03-23T12:51:30;11.40;99.90
7002;DHT22;3541;53.230;10.518;2023-03-23T12:54:03;11.40;99.90
7002;DHT22;3541;53.230;10.518;2023-03-23T12:56:35;11.40;99.90
7002;DHT22;3541;53.230;10.518;2023-03-23T12:59:11;11.40;99.90
7002;DHT22;3541;53.230;10.518;2023-03-23T13:01:42;11.40;99.90
7002;DHT22;3541;53.230;10.518;2023-03-23T13:04:13;11.40;99.90
7002;DHT22;3541;53.230;10.518;2023-03-23T13:06:42;11.30;99.90
7002;DHT22;3541;53.230;10.518;2023-03-23T13:09:13;11.30;99.90
7002;DHT22;3541;53.230;10.518;2023-03-23T13:11:42;11.30;99.90
7002;DHT22;3541;53.230;10.518;2023-03-23T13:14:29;11.30;99.90
7002;DHT22;3541;53.230;10.518;2023-03-23T13:17:06;11.30;99.90
7002;DHT22;3541;53.230;10.518;2023-03-23T13:20:01;11.30;99.90
7002;DHT22;3541;53.230;10.518;2023-03-23T13:22:35;11.20;99.90
7002;DHT22;3541;53.230;10.518;2023-03-23T13:25:07;11.20;99.90
7002;DHT22;3541;53.230;10.518;2023-03-23T13:27:38;11.30;99.90
7002;DHT22;3541;53.230;10.518;2023-03-23T13:30:18;11.50;99.90
7002;DHT22;3541;53.230;10.518;2023-03-23T13:32:48;11.60;99.90
7002;DHT22;3541;53.230;10.518;2023-03-23T13:35:17;11.70;99.90
7002;DHT22;3541;53.230;10.518;2023-03-23T13:37:47;11.70;99.90
7002;DHT22;3541;53.230;10.518;2023-03-23T13:40:21;12.00;99.90
7002;DHT22;3541;53.230;10.518;2023-03-23T13:42:54;12.10;99.90
7002;DHT22;3541;53.230;10.518;2023-03-23T13:45:23;12.20;99.90
7002;DHT22;3541;53.230;10.518;2023-03-23T13:48:03;12.30;99.90
7002;DHT22;3541;53.230;10.518;2023-03-23T13:50:30;12.50;99.90
7002;DHT22;3541;53.230;10.518;2023-03-23T13:52:59;12.70;99.90
7002;DHT22;3541;53.230;10.518;2023-03-23T13:55:38;12.80;99.90
7002;DHT22;3541;53.230;10.518;2023-03-23T13:58:22;12.70;99.90
7002;DHT22;3541;53.230;10.518;2023-03-23T14:01:02;12.50;99.90
7002;DHT22;3541;53.230;10.518;2023-03-23T14:03:36;12.50;99.90
7002;DHT22;3541;53.230;10.518;2023-03-23T14:06:05;12.40;99.90
7002;DHT22;3541;53.230;10.518;2023-03-23T14:08:40;12.50;99.90
7002;DHT22;3541;53.230;10.518;2023-03-23T14:11:16;12.60;99.90
7002;DHT22;3541;53.230;10.518;2023-03-23T14:13:49;12.60;99.90
7002;DHT22;3541;53.230;10.518;2023-03-23T14:16:19;12.80;99.90
7002;DHT22;3541;53.230;10.518;2023-03-23T14:18:52;12.90;99.90
7002;DHT22;3541;53.230;10.518;2023-03-23T14:21:31;13.10;99.90
7002;DHT22;3541;53.230;10.518;2023-03-23T14:24:00;13.30;99.90
7002;DHT22;3541;53.230;10.518;2023-03-23T14:26:27;13.40;99.90
7002;DHT22;3541;53.230;10.518;2023-03-23T14:28:55;13.50;99.90
7002;DHT22;3541;53.230;10.518;2023-03-23T14:31:22;13.60;99.90
7002;DHT22;3541;53.230;10.518;2023-03-23T14:33:51;13.80;99.90
7002;DHT22;3541;53.230;10.518;2023-03-23T14:36:22;14.00;99.90
7002;DHT22;3541;53.230;10.518;2023-03-23T14:38:57;14.20;99.90
7002;DHT22;3541;53.230;10.518;2023-03-23T14:41:28;14.30;99.90
7002;DHT22;3541;53.230;10.518;2023-03-23T14:43:56;14.40;99.90
7002;DHT22;3541;53.230;10.518;2023-03-23T14:46:25;14.20;99.90
7002;DHT22;3541;53.230;10.518;2023-03-23T14:48:52;14.00;99.90
7002;DHT22;3541;53.230;10.518;2023-03-23T14:51:20;14.30;99.90
7002;DHT22;3541;53.230;10.518;2023-03-23T14:53:47;14.50;99.90
7002;DHT22;3541;53.230;10.518;2023-03-23T14:56:18;14.50;99.90
7002;DHT22;3541;53.230;10.518;2023-03-23T14:58:45;14.70;99.90
7002;DHT22;3541;53.230;10.518;2023-03-23T15:01:16;14.80;99.90
7002;DHT22;3541;53.230;10.518;2023-03-23T15:03:52;14.80;99.90
7002;DHT22;3541;53.230;10.518;2023-03-23T15:06:21;14.80;99.90
7002;DHT22;3541;53.230;10.518;2023-03-23T15:08:52;14.70;99.90
7002;DHT22;3541;53.230;10.518;2023-03-23T15:11:24;14.90;99.90
7002;DHT22;3541;53.230;10.518;2023-03-23T15:13:55;15.00;99.90
7002;DHT22;3541;53.230;10.518;2023-03-23T15:16:27;15.10;99.90
7002;DHT22;3541;53.230;10.518;2023-03-23T15:18:57;15.10;99.90
7002;DHT22;3541;53.230;10.518;2023-03-23T15:21:28;15.20;99.90
7002;DHT22;3541;53.230;10.518;2023-03-23T15:23:56;15.30;99.90
7002;DHT22;3541;53.230;10.518;2023-03-23T15:26:31;15.50;99.90
7002;DHT22;3541;53.230;10.518;2023-03-23T15:29:10;15.70;99.90
7002;DHT22;3541;53.230;10.518;2023-03-23T15:31:41;15.50;99.90
7002;DHT22;3541;53.230;10.518;2023-03-23T15:34:13;15.60;99.90
7002;DHT22;3541;53.230;10.518;2023-03-23T15:36:41;15.10;99.90
7002;DHT22;3541;53.230;10.518;2023-03-23T15:39:10;14.70;99.90
7002;DHT22;3541;53.230;10.518;2023-03-23T15:41:46;14.30;99.90
7002;DHT22;3541;53.230;10.518;2023-03-23T15:44:24;13.80;99.90
7002;DHT22;3541;53.230;10.518;2023-03-23T15:47:02;13.70;99.90
7002;DHT22;3541;53.230;10.518;2023-03-23T15:49:29;13.50;99.90
7002;DHT22;3541;53.230;10.518;2023-03-23T15:51:56;13.40;99.90
7002;DHT22;3541;53.230;10.518;2023-03-23T15:54:23;13.10;99.90
7002;DHT22;3541;53.230;10.518;2023-03-23T15:56:49;12.50;99.90
7002;DHT22;3541;53.230;10.518;2023-03-23T15:59:16;12.20;99.90
7002;DHT22;3541;53.230;10.518;2023-03-23T16:01:43;11.90;99.90
7002;DHT22;3541;53.230;10.518;2023-03-23T16:04:13;12.10;99.90
7002;DHT22;3541;53.230;10.518;2023-03-23T16:06:40;12.60;99.90
7002;DHT22;3541;53.230;10.518;2023-03-23T16:09:11;13.00;99.90
7002;DHT22;3541;53.230;10.518;2023-03-23T16:11:38;13.40;99.90